sensor_id;sensor_type;location;lat;lon;timestamp;P1;durP1;ratioP1;P2;durP2;ratioP2
4055;SDS011;2043;52.184;8.690;2022-11-20T00:00:17;39.60;;;17.43;;
4055;SDS011;2043;52.184;8.690;2022-11-20T00:02:44;46.13;;;20.57;;
4055;SDS011;2043;52.184;8.690;2022-11-20T00:05:11;47.70;;;19.20;;
4055;SDS011;2043;52.184;8.690;2022-11-20T00:07:39;39.17;;;18.70;;
4055;SDS011;2043;52.184;8.690;2022-11-20T00:10:06;37.27;;;18.40;;
4055;SDS011;2043;52.184;8.690;2022-11-20T00:15:09;44.73;;;20.73;;
4055;SDS011;2043;52.184;8.690;2022-11-20T00:17:36;42.43;;;18.47;;
4055;SDS011;2043;52.184;8.690;2022-11-20T00:20:03;46.70;;;19.27;;
4055;SDS011;2043;52.184;8.690;2022-11-20T00:22:30;34.27;;;16.70;;
4055;SDS011;2043;52.184;8.690;2022-11-20T00:24:57;36.33;;;14.50;;
4055;SDS011;2043;52.184;8.690;2022-11-20T00:27:24;34.73;;;14.97;;
4055;SDS011;2043;52.184;8.690;2022-11-20T00:29:52;32.77;;;15.20;;
4055;SDS011;2043;52.184;8.690;2022-11-20T00:32:19;33.47;;;15.03;;
4055;SDS011;2043;52.184;8.690;2022-11-20T00:34:46;33.40;;;15.37;;
4055;SDS011;2043;52.184;8.690;2022-11-20T00:37:13;32.23;;;14.87;;
4055;SDS011;2043;52.184;8.690;2022-11-20T00:39:40;30.87;;;14.20;;
4055;SDS011;2043;52.184;8.690;2022-11-20T00:42:07;33.93;;;15.40;;
4055;SDS011;2043;52.184;8.690;2022-11-20T00:44:34;30.20;;;13.80;;
4055;SDS011;2043;52.184;8.690;2022-11-20T00:47:02;27.63;;;14.13;;
4055;SDS011;2043;52.184;8.690;2022-11-20T00:49:28;25.07;;;12.60;;
4055;SDS011;2043;52.184;8.690;2022-11-20T00:51:56;30.13;;;13.50;;
4055;SDS011;2043;52.184;8.690;2022-11-20T00:54:23;26.67;;;12.73;;
4055;SDS011;2043;52.184;8.690;2022-11-20T00:56:52;26.13;;;12.73;;
4055;SDS011;2043;52.184;8.690;2022-11-20T00:59:19;28.10;;;12.97;;
4055;SDS011;2043;52.184;8.690;2022-11-20T01:01:47;24.40;;;12.10;;
4055;SDS011;2043;52.184;8.690;2022-11-20T01:04:14;30.30;;;12.80;;
4055;SDS011;2043;52.184;8.690;2022-11-20T01:06:41;31.03;;;14.10;;
4055;SDS011;2043;52.184;8.690;2022-11-20T01:09:12;26.47;;;13.10;;
4055;SDS011;2043;52.184;8.690;2022-11-20T01:11:41;26.87;;;13.00;;
4055;SDS011;2043;52.184;8.690;2022-11-20T01:14:13;37.07;;;14.00;;
4055;SDS011;2043;52.184;8.690;2022-11-20T01:16:43;26.87;;;12.37;;
4055;SDS011;2043;52.184;8.690;2022-11-20T01:19:19;30.03;;;13.60;;
4055;SDS011;2043;52.184;8.690;2022-11-20T01:21:48;27.13;;;13.30;;
4055;SDS011;2043;52.184;8.690;2022-11-20T01:24:19;30.67;;;13.80;;
4055;SDS011;2043;52.184;8.690;2022-11-20T01:26:47;27.70;;;13.23;;
4055;SDS011;2043;52.184;8.690;2022-11-20T01:29:17;28.57;;;11.93;;
4055;SDS011;2043;52.184;8.690;2022-11-20T01:31:49;22.37;;;10.60;;
4055;SDS011;2043;52.184;8.690;2022-11-20T01:34:18;31.87;;;12.90;;
4055;SDS011;2043;52.184;8.690;2022-11-20T01:36:46;26.33;;;11.80;;
4055;SDS011;2043;52.184;8.690;2022-11-20T01:39:14;26.17;;;12.70;;
4055;SDS011;2043;52.184;8.690;2022-11-20T01:41:43;32.77;;;12.70;;
4055;SDS011;2043;52.184;8.690;2022-11-20T01:47:24;28.50;;;12.73;;
4055;SDS011;2043;52.184;8.690;2022-11-20T01:52:36;31.23;;;13.80;;
4055;SDS011;2043;52.184;8.690;2022-11-20T01:55:13;27.67;;;13.70;;
4055;SDS011;2043;52.184;8.690;2022-11-20T01:57:45;30.20;;;14.10;;
4055;SDS011;2043;52.184;8.690;2022-11-20T02:00:16;28.30;;;13.23;;
4055;SDS011;2043;52.184;8.690;2022-11-20T02:02:47;32.57;;;13.60;;
4055;SDS011;2043;52.184;8.690;2022-11-20T02:07:44;25.63;;;11.63;;
4055;SDS011;2043;52.184;8.690;2022-11-20T02:10:12;24.63;;;11.53;;
4055;SDS011;2043;52.184;8.690;2022-11-20T02:12:40;28.43;;;12.13;;
4055;SDS011;2043;52.184;8.690;2022-11-20T02:15:26;25.60;;;10.70;;
4055;SDS011;2043;52.184;8.690;2022-11-20T02:17:55;26.47;;;10.83;;
4055;SDS011;2043;52.184;8.690;2022-11-20T02:20:23;31.13;;;13.63;;
4055;SDS011;2043;52.184;8.690;2022-11-20T02:23:12;29.83;;;12.17;;
4055;SDS011;2043;52.184;8.690;2022-11-20T02:25:46;28.73;;;12.60;;
4055;SDS011;2043;52.184;8.690;2022-11-20T02:28:13;28.20;;;12.17;;
4055;SDS011;2043;52.184;8.690;2022-11-20T02:30:41;29.20;;;12.50;;
4055;SDS011;2043;52.184;8.690;2022-11-20T02:33:08;28.77;;;13.67;;
4055;SDS011;2043;52.184;8.690;2022-11-20T02:35:38;29.70;;;13.03;;
4055;SDS011;2043;52.184;8.690;2022-11-20T02:38:07;28.80;;;13.20;;
4055;SDS011;2043;52.184;8.690;2022-11-20T02:40:34;29.13;;;12.30;;
4055;SDS011;2043;52.184;8.690;2022-11-20T02:43:01;30.73;;;13.70;;
4055;SDS011;2043;52.184;8.690;2022-11-20T02:45:28;25.73;;;12.13;;
4055;SDS011;2043;52.184;8.690;2022-11-20T02:47:56;29.67;;;12.00;;
4055;SDS011;2043;52.184;8.690;2022-11-20T02:50:22;24.97;;;12.23;;
4055;SDS011;2043;52.184;8.690;2022-11-20T02:52:50;25.10;;;11.70;;
4055;SDS011;2043;52.184;8.690;2022-11-20T02:55:17;29.60;;;13.07;;
4055;SDS011;2043;52.184;8.690;2022-11-20T02:57:44;25.33;;;12.10;;
4055;SDS011;2043;52.184;8.690;2022-11-20T03:00:11;27.50;;;12.73;;
4055;SDS011;2043;52.184;8.690;2022-11-20T03:02:38;28.57;;;14.20;;
4055;SDS011;2043;52.184;8.690;2022-11-20T03:05:05;24.60;;;12.37;;
4055;SDS011;2043;52.184;8.690;2022-11-20T03:07:32;27.13;;;12.07;;
4055;SDS011;2043;52.184;8.690;2022-11-20T03:10:00;26.97;;;12.93;;
4055;SDS011;2043;52.184;8.690;2022-11-20T03:12:27;30.30;;;13.27;;
4055;SDS011;2043;52.184;8.690;2022-11-20T03:14:54;31.60;;;14.03;;
4055;SDS011;2043;52.184;8.690;2022-11-20T03:17:21;28.73;;;12.70;;
4055;SDS011;2043;52.184;8.690;2022-11-20T03:19:48;24.50;;;12.93;;
4055;SDS011;2043;52.184;8.690;2022-11-20T03:22:16;34.40;;;14.00;;
4055;SDS011;2043;52.184;8.690;2022-11-20T03:24:43;34.23;;;14.10;;
4055;SDS011;2043;52.184;8.690;2022-11-20T03:27:10;32.70;;;12.40;;
4055;SDS011;2043;52.184;8.690;2022-11-20T03:29:37;27.80;;;13.20;;
4055;SDS011;2043;52.184;8.690;2022-11-20T03:32:04;29.13;;;13.03;;
4055;SDS011;2043;52.184;8.690;2022-11-20T03:34:31;31.20;;;14.03;;
4055;SDS011;2043;52.184;8.690;2022-11-20T03:36:58;28.33;;;13.50;;
4055;SDS011;2043;52.184;8.690;2022-11-20T03:39:26;30.33;;;13.40;;
4055;SDS011;2043;52.184;8.690;2022-11-20T03:41:53;32.27;;;13.87;;
4055;SDS011;2043;52.184;8.690;2022-11-20T03:44:20;31.33;;;14.10;;
4055;SDS011;2043;52.184;8.690;2022-11-20T03:46:47;27.90;;;12.70;;
4055;SDS011;2043;52.184;8.690;2022-11-20T03:49:15;28.77;;;12.97;;
4055;SDS011;2043;52.184;8.690;2022-11-20T03:51:42;28.83;;;13.03;;
4055;SDS011;2043;52.184;8.690;2022-11-20T03:54:09;36.00;;;14.83;;
4055;SDS011;2043;52.184;8.690;2022-11-20T03:56:37;33.10;;;14.70;;
4055;SDS011;2043;52.184;8.690;2022-11-20T03:59:05;36.70;;;14.97;;
4055;SDS011;2043;52.184;8.690;2022-11-20T04:01:35;35.50;;;14.47;;
4055;SDS011;2043;52.184;8.690;2022-11-20T04:04:03;29.00;;;12.60;;
4055;SDS011;2043;52.184;8.690;2022-11-20T04:06:33;30.53;;;12.80;;
4055;SDS011;2043;52.184;8.690;2022-11-20T04:09:01;33.20;;;13.63;;
4055;SDS011;2043;52.184;8.690;2022-11-20T04:11:29;36.90;;;12.90;;
4055;SDS011;2043;52.184;8.690;2022-11-20T04:13:58;38.53;;;14.03;;
4055;SDS011;2043;52.184;8.690;2022-11-20T04:16:30;28.63;;;13.10;;
4055;SDS011;2043;52.184;8.690;2022-11-20T04:18:59;27.57;;;12.67;;
4055;SDS011;2043;52.184;8.690;2022-11-20T04:21:27;27.40;;;12.90;;
4055;SDS011;2043;52.184;8.690;2022-11-20T04:23:54;30.40;;;12.50;;
4055;SDS011;2043;52.184;8.690;2022-11-20T04:26:23;26.30;;;11.73;;
4055;SDS011;2043;52.184;8.690;2022-11-20T04:28:51;24.97;;;11.33;;
4055;SDS011;2043;52.184;8.690;2022-11-20T04:31:19;26.67;;;11.93;;
4055;SDS011;2043;52.184;8.690;2022-11-20T04:33:46;23.47;;;10.80;;
4055;SDS011;2043;52.184;8.690;2022-11-20T04:36:18;24.10;;;11.20;;
4055;SDS011;2043;52.184;8.690;2022-11-20T04:38:46;32.00;;;11.70;;
4055;SDS011;2043;52.184;8.690;2022-11-20T04:41:22;28.23;;;11.13;;
4055;SDS011;2043;52.184;8.690;2022-11-20T04:43:52;27.13;;;11.97;;
4055;SDS011;2043;52.184;8.690;2022-11-20T04:46:26;30.13;;;11.90;;
4055;SDS011;2043;52.184;8.690;2022-11-20T04:48:53;25.50;;;12.70;;
4055;SDS011;2043;52.184;8.690;2022-11-20T04:51:21;27.83;;;12.77;;
4055;SDS011;2043;52.184;8.690;2022-11-20T04:53:48;28.87;;;12.63;;
4055;SDS011;2043;52.184;8.690;2022-11-20T04:56:15;24.50;;;11.30;;
4055;SDS011;2043;52.184;8.690;2022-11-20T04:58:42;25.03;;;11.90;;
4055;SDS011;2043;52.184;8.690;2022-11-20T05:01:13;23.40;;;11.60;;
4055;SDS011;2043;52.184;8.690;2022-11-20T05:03:58;25.50;;;10.93;;
4055;SDS011;2043;52.184;8.690;2022-11-20T05:06:26;25.03;;;10.80;;
4055;SDS011;2043;52.184;8.690;2022-11-20T05:08:53;21.40;;;10.23;;
4055;SDS011;2043;52.184;8.690;2022-11-20T05:11:20;22.50;;;9.93;;
4055;SDS011;2043;52.184;8.690;2022-11-20T05:13:48;24.67;;;11.00;;
4055;SDS011;2043;52.184;8.690;2022-11-20T05:16:17;20.87;;;10.80;;
4055;SDS011;2043;52.184;8.690;2022-11-20T05:18:49;22.90;;;10.97;;
4055;SDS011;2043;52.184;8.690;2022-11-20T05:21:17;21.97;;;10.87;;
4055;SDS011;2043;52.184;8.690;2022-11-20T05:23:44;26.20;;;11.00;;
4055;SDS011;2043;52.184;8.690;2022-11-20T05:26:15;24.80;;;11.07;;
4055;SDS011;2043;52.184;8.690;2022-11-20T05:28:43;22.77;;;9.83;;
4055;SDS011;2043;52.184;8.690;2022-11-20T05:31:15;23.70;;;11.10;;
4055;SDS011;2043;52.184;8.690;2022-11-20T05:33:52;27.67;;;12.90;;
4055;SDS011;2043;52.184;8.690;2022-11-20T05:36:20;31.60;;;13.73;;
4055;SDS011;2043;52.184;8.690;2022-11-20T05:38:47;28.80;;;13.30;;
4055;SDS011;2043;52.184;8.690;2022-11-20T05:41:17;24.07;;;11.33;;
4055;SDS011;2043;52.184;8.690;2022-11-20T05:43:46;24.33;;;11.30;;
4055;SDS011;2043;52.184;8.690;2022-11-20T05:46:15;21.63;;;10.60;;
4055;SDS011;2043;52.184;8.690;2022-11-20T05:48:50;22.10;;;10.77;;
4055;SDS011;2043;52.184;8.690;2022-11-20T05:51:17;24.10;;;10.83;;
4055;SDS011;2043;52.184;8.690;2022-11-20T05:53:44;19.67;;;9.83;;
4055;SDS011;2043;52.184;8.690;2022-11-20T05:56:17;25.03;;;10.50;;
4055;SDS011;2043;52.184;8.690;2022-11-20T05:58:46;30.63;;;11.50;;
4055;SDS011;2043;52.184;8.690;2022-11-20T06:01:14;24.13;;;11.20;;
4055;SDS011;2043;52.184;8.690;2022-11-20T06:03:41;30.70;;;12.43;;
4055;SDS011;2043;52.184;8.690;2022-11-20T06:06:12;22.90;;;11.03;;
4055;SDS011;2043;52.184;8.690;2022-11-20T06:08:40;24.10;;;11.43;;
4055;SDS011;2043;52.184;8.690;2022-11-20T06:11:08;26.83;;;12.57;;
4055;SDS011;2043;52.184;8.690;2022-11-20T06:13:36;27.60;;;12.37;;
4055;SDS011;2043;52.184;8.690;2022-11-20T06:16:07;22.23;;;11.60;;
4055;SDS011;2043;52.184;8.690;2022-11-20T06:18:34;36.30;;;13.30;;
4055;SDS011;2043;52.184;8.690;2022-11-20T06:21:06;26.83;;;12.00;;
4055;SDS011;2043;52.184;8.690;2022-11-20T06:23:39;28.23;;;12.90;;
4055;SDS011;2043;52.184;8.690;2022-11-20T06:26:10;24.97;;;12.40;;
4055;SDS011;2043;52.184;8.690;2022-11-20T06:28:38;25.57;;;12.20;;
4055;SDS011;2043;52.184;8.690;2022-11-20T06:31:05;27.80;;;11.90;;
4055;SDS011;2043;52.184;8.690;2022-11-20T06:33:33;26.53;;;11.90;;
4055;SDS011;2043;52.184;8.690;2022-11-20T06:36:00;33.33;;;14.30;;
4055;SDS011;2043;52.184;8.690;2022-11-20T06:38:35;31.97;;;13.10;;
4055;SDS011;2043;52.184;8.690;2022-11-20T06:41:03;32.00;;;13.97;;
4055;SDS011;2043;52.184;8.690;2022-11-20T06:43:30;27.73;;;11.40;;
4055;SDS011;2043;52.184;8.690;2022-11-20T06:45:58;27.37;;;11.83;;
4055;SDS011;2043;52.184;8.690;2022-11-20T06:48:26;31.80;;;13.40;;
4055;SDS011;2043;52.184;8.690;2022-11-20T06:50:53;31.27;;;15.27;;
4055;SDS011;2043;52.184;8.690;2022-11-20T06:53:21;31.10;;;13.60;;
4055;SDS011;2043;52.184;8.690;2022-11-20T06:55:48;33.53;;;13.87;;
4055;SDS011;2043;52.184;8.690;2022-11-20T06:58:15;30.97;;;14.10;;
4055;SDS011;2043;52.184;8.690;2022-11-20T07:00:43;41.43;;;15.80;;
4055;SDS011;2043;52.184;8.690;2022-11-20T07:03:10;33.67;;;15.00;;
4055;SDS011;2043;52.184;8.690;2022-11-20T07:05:38;31.83;;;14.53;;
4055;SDS011;2043;52.184;8.690;2022-11-20T07:08:06;32.23;;;14.80;;
4055;SDS011;2043;52.184;8.690;2022-11-20T07:10:33;34.63;;;14.20;;
4055;SDS011;2043;52.184;8.690;2022-11-20T07:13:00;31.87;;;14.50;;
4055;SDS011;2043;52.184;8.690;2022-11-20T07:15:28;31.87;;;13.83;;
4055;SDS011;2043;52.184;8.690;2022-11-20T07:17:54;33.80;;;13.50;;
4055;SDS011;2043;52.184;8.690;2022-11-20T07:20:22;40.90;;;14.77;;
4055;SDS011;2043;52.184;8.690;2022-11-20T07:22:53;48.83;;;15.70;;
4055;SDS011;2043;52.184;8.690;2022-11-20T07:25:24;52.33;;;17.27;;
4055;SDS011;2043;52.184;8.690;2022-11-20T07:27:51;54.83;;;16.37;;
4055;SDS011;2043;52.184;8.690;2022-11-20T07:30:18;66.83;;;17.30;;
4055;SDS011;2043;52.184;8.690;2022-11-20T07:32:46;43.80;;;16.27;;
4055;SDS011;2043;52.184;8.690;2022-11-20T07:35:16;32.17;;;12.87;;
4055;SDS011;2043;52.184;8.690;2022-11-20T07:37:43;21.00;;;10.37;;
4055;SDS011;2043;52.184;8.690;2022-11-20T07:40:12;27.73;;;14.00;;
4055;SDS011;2043;52.184;8.690;2022-11-20T07:42:39;25.77;;;13.30;;
4055;SDS011;2043;52.184;8.690;2022-11-20T07:45:14;28.90;;;13.93;;
4055;SDS011;2043;52.184;8.690;2022-11-20T07:47:41;47.63;;;13.70;;
4055;SDS011;2043;52.184;8.690;2022-11-20T07:50:08;25.87;;;13.00;;
4055;SDS011;2043;52.184;8.690;2022-11-20T07:52:35;24.90;;;13.27;;
4055;SDS011;2043;52.184;8.690;2022-11-20T07:55:02;26.07;;;13.43;;
4055;SDS011;2043;52.184;8.690;2022-11-20T07:57:29;23.20;;;11.83;;
4055;SDS011;2043;52.184;8.690;2022-11-20T07:59:57;24.63;;;11.70;;
4055;SDS011;2043;52.184;8.690;2022-11-20T08:02:23;22.90;;;11.60;;
4055;SDS011;2043;52.184;8.690;2022-11-20T08:04:50;22.30;;;11.20;;
4055;SDS011;2043;52.184;8.690;2022-11-20T08:07:18;26.27;;;12.50;;
4055;SDS011;2043;52.184;8.690;2022-11-20T08:09:45;31.53;;;13.07;;
4055;SDS011;2043;52.184;8.690;2022-11-20T08:12:17;23.50;;;12.60;;
4055;SDS011;2043;52.184;8.690;2022-11-20T08:15:04;24.17;;;12.50;;
4055;SDS011;2043;52.184;8.690;2022-11-20T08:17:38;39.60;;;17.80;;
4055;SDS011;2043;52.184;8.690;2022-11-20T08:20:05;30.47;;;15.07;;
4055;SDS011;2043;52.184;8.690;2022-11-20T08:22:32;29.27;;;14.53;;
4055;SDS011;2043;52.184;8.690;2022-11-20T08:24:59;26.43;;;13.20;;
4055;SDS011;2043;52.184;8.690;2022-11-20T08:27:26;68.50;;;26.77;;
4055;SDS011;2043;52.184;8.690;2022-11-20T08:29:54;46.47;;;20.17;;
4055;SDS011;2043;52.184;8.690;2022-11-20T08:32:21;34.03;;;14.80;;
4055;SDS011;2043;52.184;8.690;2022-11-20T08:34:48;33.20;;;16.70;;
4055;SDS011;2043;52.184;8.690;2022-11-20T08:37:15;33.20;;;16.67;;
4055;SDS011;2043;52.184;8.690;2022-11-20T08:39:42;39.53;;;15.50;;
4055;SDS011;2043;52.184;8.690;2022-11-20T08:42:09;42.40;;;16.30;;
4055;SDS011;2043;52.184;8.690;2022-11-20T08:44:36;25.37;;;9.70;;
4055;SDS011;2043;52.184;8.690;2022-11-20T08:47:03;50.00;;;18.57;;
4055;SDS011;2043;52.184;8.690;2022-11-20T08:49:31;39.27;;;14.03;;
4055;SDS011;2043;52.184;8.690;2022-11-20T08:51:58;38.13;;;15.37;;
4055;SDS011;2043;52.184;8.690;2022-11-20T08:54:25;45.47;;;17.37;;
4055;SDS011;2043;52.184;8.690;2022-11-20T08:56:52;47.77;;;18.43;;
4055;SDS011;2043;52.184;8.690;2022-11-20T08:59:18;40.97;;;16.20;;
4055;SDS011;2043;52.184;8.690;2022-11-20T09:02:05;45.90;;;17.67;;
4055;SDS011;2043;52.184;8.690;2022-11-20T09:04:32;47.63;;;19.30;;
4055;SDS011;2043;52.184;8.690;2022-11-20T09:06:59;42.20;;;15.83;;
4055;SDS011;2043;52.184;8.690;2022-11-20T09:09:26;44.57;;;16.40;;
4055;SDS011;2043;52.184;8.690;2022-11-20T09:11:54;54.73;;;19.63;;
4055;SDS011;2043;52.184;8.690;2022-11-20T09:14:21;44.33;;;16.07;;
4055;SDS011;2043;52.184;8.690;2022-11-20T09:16:50;43.40;;;17.27;;
4055;SDS011;2043;52.184;8.690;2022-11-20T09:19:17;51.70;;;23.10;;
4055;SDS011;2043;52.184;8.690;2022-11-20T09:22:01;49.27;;;20.10;;
4055;SDS011;2043;52.184;8.690;2022-11-20T09:24:28;42.23;;;16.93;;
4055;SDS011;2043;52.184;8.690;2022-11-20T09:26:55;48.30;;;19.33;;
4055;SDS011;2043;52.184;8.690;2022-11-20T09:29:22;49.93;;;19.57;;
4055;SDS011;2043;52.184;8.690;2022-11-20T09:31:49;44.70;;;19.20;;
4055;SDS011;2043;52.184;8.690;2022-11-20T09:34:17;45.33;;;19.03;;
4055;SDS011;2043;52.184;8.690;2022-11-20T09:36:44;40.40;;;17.03;;
4055;SDS011;2043;52.184;8.690;2022-11-20T09:39:11;53.13;;;18.37;;
4055;SDS011;2043;52.184;8.690;2022-11-20T09:47:20;40.57;;;18.43;;
4055;SDS011;2043;52.184;8.690;2022-11-20T09:50:10;37.93;;;17.87;;
4055;SDS011;2043;52.184;8.690;2022-11-20T09:55:32;43.27;;;19.83;;
4055;SDS011;2043;52.184;8.690;2022-11-20T09:58:02;41.07;;;19.27;;
4055;SDS011;2043;52.184;8.690;2022-11-20T10:00:32;44.13;;;17.10;;
4055;SDS011;2043;52.184;8.690;2022-11-20T10:05:36;41.63;;;19.80;;
4055;SDS011;2043;52.184;8.690;2022-11-20T10:10:47;39.33;;;17.27;;
4055;SDS011;2043;52.184;8.690;2022-11-20T10:29:59;47.93;;;21.37;;
4055;SDS011;2043;52.184;8.690;2022-11-20T10:32:34;41.13;;;20.17;;
4055;SDS011;2043;52.184;8.690;2022-11-20T10:35:48;41.03;;;18.93;;
4055;SDS011;2043;52.184;8.690;2022-11-20T10:38:04;43.63;;;20.03;;
4055;SDS011;2043;52.184;8.690;2022-11-20T10:40:43;40.17;;;19.23;;
4055;SDS011;2043;52.184;8.690;2022-11-20T10:43:23;42.73;;;20.50;;
4055;SDS011;2043;52.184;8.690;2022-11-20T10:45:58;46.60;;;20.27;;
4055;SDS011;2043;52.184;8.690;2022-11-20T10:48:30;45.50;;;20.57;;
4055;SDS011;2043;52.184;8.690;2022-11-20T10:54:05;38.63;;;18.50;;
4055;SDS011;2043;52.184;8.690;2022-11-20T11:00:00;41.63;;;19.57;;
4055;SDS011;2043;52.184;8.690;2022-11-20T11:02:40;43.10;;;19.50;;
4055;SDS011;2043;52.184;8.690;2022-11-20T11:05:32;45.40;;;20.00;;
4055;SDS011;2043;52.184;8.690;2022-11-20T11:08:13;41.37;;;20.37;;
4055;SDS011;2043;52.184;8.690;2022-11-20T11:10:56;35.57;;;17.60;;
4055;SDS011;2043;52.184;8.690;2022-11-20T11:13:26;33.03;;;16.90;;
4055;SDS011;2043;52.184;8.690;2022-11-20T11:15:55;31.53;;;16.80;;
4055;SDS011;2043;52.184;8.690;2022-11-20T11:18:29;39.93;;;15.40;;
4055;SDS011;2043;52.184;8.690;2022-11-20T11:20:59;30.57;;;15.60;;
4055;SDS011;2043;52.184;8.690;2022-11-20T11:23:38;31.80;;;17.10;;
4055;SDS011;2043;52.184;8.690;2022-11-20T11:26:17;31.97;;;16.37;;
4055;SDS011;2043;52.184;8.690;2022-11-20T11:28:56;30.03;;;16.10;;
4055;SDS011;2043;52.184;8.690;2022-11-20T11:31:31;28.50;;;15.17;;
4055;SDS011;2043;52.184;8.690;2022-11-20T11:34:16;25.17;;;13.77;;
4055;SDS011;2043;52.184;8.690;2022-11-20T11:36:49;27.43;;;15.00;;
4055;SDS011;2043;52.184;8.690;2022-11-20T11:39:22;24.10;;;13.43;;
4055;SDS011;2043;52.184;8.690;2022-11-20T11:41:51;33.47;;;16.20;;
4055;SDS011;2043;52.184;8.690;2022-11-20T11:44:36;24.60;;;13.20;;
4055;SDS011;2043;52.184;8.690;2022-11-20T11:47:23;22.43;;;13.50;;
4055;SDS011;2043;52.184;8.690;2022-11-20T11:55:14;27.27;;;14.50;;
4055;SDS011;2043;52.184;8.690;2022-11-20T11:57:54;26.87;;;14.80;;
4055;SDS011;2043;52.184;8.690;2022-11-20T12:00:33;25.40;;;14.03;;
4055;SDS011;2043;52.184;8.690;2022-11-20T12:03:15;23.87;;;13.90;;
4055;SDS011;2043;52.184;8.690;2022-11-20T12:05:59;23.10;;;13.07;;
4055;SDS011;2043;52.184;8.690;2022-11-20T12:08:32;26.97;;;15.43;;
4055;SDS011;2043;52.184;8.690;2022-11-20T12:11:24;24.73;;;14.03;;
4055;SDS011;2043;52.184;8.690;2022-11-20T12:14:13;30.33;;;16.50;;
4055;SDS011;2043;52.184;8.690;2022-11-20T12:16:56;23.33;;;13.50;;
4055;SDS011;2043;52.184;8.690;2022-11-20T12:19:23;23.17;;;13.43;;
4055;SDS011;2043;52.184;8.690;2022-11-20T12:24:44;23.73;;;13.83;;
4055;SDS011;2043;52.184;8.690;2022-11-20T12:30:14;23.80;;;14.03;;
4055;SDS011;2043;52.184;8.690;2022-11-20T12:43:26;23.40;;;14.37;;
4055;SDS011;2043;52.184;8.690;2022-11-20T12:51:57;21.80;;;12.70;;
4055;SDS011;2043;52.184;8.690;2022-11-20T13:00:06;27.60;;;14.33;;
4055;SDS011;2043;52.184;8.690;2022-11-20T13:08:19;29.77;;;16.33;;
4055;SDS011;2043;52.184;8.690;2022-11-20T13:11:03;52.20;;;23.70;;
4055;SDS011;2043;52.184;8.690;2022-11-20T13:13:54;22.60;;;12.27;;
4055;SDS011;2043;52.184;8.690;2022-11-20T13:19:33;11.33;;;6.67;;
4055;SDS011;2043;52.184;8.690;2022-11-20T13:22:00;13.77;;;8.00;;
4055;SDS011;2043;52.184;8.690;2022-11-20T13:24:28;14.33;;;8.13;;
4055;SDS011;2043;52.184;8.690;2022-11-20T13:27:04;18.73;;;7.60;;
4055;SDS011;2043;52.184;8.690;2022-11-20T13:29:44;14.53;;;8.10;;
4055;SDS011;2043;52.184;8.690;2022-11-20T13:32:16;13.80;;;7.30;;
4055;SDS011;2043;52.184;8.690;2022-11-20T13:34:53;14.13;;;8.10;;
4055;SDS011;2043;52.184;8.690;2022-11-20T13:37:26;14.60;;;8.10;;
4055;SDS011;2043;52.184;8.690;2022-11-20T13:45:22;15.00;;;8.97;;
4055;SDS011;2043;52.184;8.690;2022-11-20T13:47:50;14.90;;;8.27;;
4055;SDS011;2043;52.184;8.690;2022-11-20T13:50:18;21.37;;;10.53;;
4055;SDS011;2043;52.184;8.690;2022-11-20T13:53:04;21.00;;;10.73;;
4055;SDS011;2043;52.184;8.690;2022-11-20T13:56:00;13.93;;;8.20;;
4055;SDS011;2043;52.184;8.690;2022-11-20T13:58:47;18.30;;;9.30;;
4055;SDS011;2043;52.184;8.690;2022-11-20T14:01:40;17.40;;;9.17;;
4055;SDS011;2043;52.184;8.690;2022-11-20T14:04:16;20.57;;;11.77;;
4055;SDS011;2043;52.184;8.690;2022-11-20T14:06:47;23.57;;;12.90;;
4055;SDS011;2043;52.184;8.690;2022-11-20T14:09:28;13.60;;;7.93;;
4055;SDS011;2043;52.184;8.690;2022-11-20T14:11:58;17.93;;;9.30;;
4055;SDS011;2043;52.184;8.690;2022-11-20T14:14:29;23.40;;;9.57;;
4055;SDS011;2043;52.184;8.690;2022-11-20T14:17:17;17.50;;;9.33;;
4055;SDS011;2043;52.184;8.690;2022-11-20T14:19:58;15.83;;;8.93;;
4055;SDS011;2043;52.184;8.690;2022-11-20T14:22:28;18.97;;;10.07;;
4055;SDS011;2043;52.184;8.690;2022-11-20T14:25:06;18.37;;;8.80;;
4055;SDS011;2043;52.184;8.690;2022-11-20T14:27:43;18.07;;;9.43;;
4055;SDS011;2043;52.184;8.690;2022-11-20T14:32:41;20.50;;;10.23;;
4055;SDS011;2043;52.184;8.690;2022-11-20T14:35:13;19.43;;;9.53;;
4055;SDS011;2043;52.184;8.690;2022-11-20T14:37:45;19.50;;;10.67;;
4055;SDS011;2043;52.184;8.690;2022-11-20T14:42:53;21.20;;;10.27;;
4055;SDS011;2043;52.184;8.690;2022-11-20T14:45:21;18.90;;;10.87;;
4055;SDS011;2043;52.184;8.690;2022-11-20T14:47:49;20.23;;;9.60;;
4055;SDS011;2043;52.184;8.690;2022-11-20T14:50:28;16.90;;;9.33;;
4055;SDS011;2043;52.184;8.690;2022-11-20T14:52:56;31.73;;;12.53;;
4055;SDS011;2043;52.184;8.690;2022-11-20T14:55:34;17.37;;;10.17;;
4055;SDS011;2043;52.184;8.690;2022-11-20T14:58:03;22.30;;;11.83;;
4055;SDS011;2043;52.184;8.690;2022-11-20T15:00:54;22.77;;;12.20;;
4055;SDS011;2043;52.184;8.690;2022-11-20T15:03:23;31.10;;;13.70;;
4055;SDS011;2043;52.184;8.690;2022-11-20T15:05:57;26.53;;;14.20;;
4055;SDS011;2043;52.184;8.690;2022-11-20T15:08:24;31.13;;;18.92;;
4055;SDS011;2043;52.184;8.690;2022-11-20T15:10:52;32.03;;;17.10;;
4055;SDS011;2043;52.184;8.690;2022-11-20T15:15:58;29.13;;;14.70;;
4055;SDS011;2043;52.184;8.690;2022-11-20T15:18:59;25.60;;;13.47;;
4055;SDS011;2043;52.184;8.690;2022-11-20T15:21:20;19.60;;;11.10;;
4055;SDS011;2043;52.184;8.690;2022-11-20T15:23:47;23.00;;;10.90;;
4055;SDS011;2043;52.184;8.690;2022-11-20T15:26:15;23.53;;;11.20;;
4055;SDS011;2043;52.184;8.690;2022-11-20T15:28:50;21.77;;;11.30;;
4055;SDS011;2043;52.184;8.690;2022-11-20T15:31:19;19.80;;;11.70;;
4055;SDS011;2043;52.184;8.690;2022-11-20T15:33:48;23.33;;;13.03;;
4055;SDS011;2043;52.184;8.690;2022-11-20T15:36:15;45.10;;;18.90;;
4055;SDS011;2043;52.184;8.690;2022-11-20T15:38:42;28.30;;;14.20;;
4055;SDS011;2043;52.184;8.690;2022-11-20T15:41:10;19.47;;;10.57;;
4055;SDS011;2043;52.184;8.690;2022-11-20T15:43:37;24.23;;;11.97;;
4055;SDS011;2043;52.184;8.690;2022-11-20T15:46:05;20.40;;;10.67;;
4055;SDS011;2043;52.184;8.690;2022-11-20T15:48:45;23.23;;;12.10;;
4055;SDS011;2043;52.184;8.690;2022-11-20T15:53:50;21.90;;;11.47;;
4055;SDS011;2043;52.184;8.690;2022-11-20T15:56:18;22.30;;;11.43;;
4055;SDS011;2043;52.184;8.690;2022-11-20T15:58:44;22.13;;;12.70;;
4055;SDS011;2043;52.184;8.690;2022-11-20T16:01:12;23.20;;;11.13;;
4055;SDS011;2043;52.184;8.690;2022-11-20T16:03:44;24.47;;;13.30;;
4055;SDS011;2043;52.184;8.690;2022-11-20T16:06:11;24.77;;;12.63;;
4055;SDS011;2043;52.184;8.690;2022-11-20T16:08:38;23.80;;;12.33;;
4055;SDS011;2043;52.184;8.690;2022-11-20T16:11:04;23.13;;;11.17;;
4055;SDS011;2043;52.184;8.690;2022-11-20T16:13:31;32.73;;;13.00;;
4055;SDS011;2043;52.184;8.690;2022-11-20T16:16:25;27.47;;;11.83;;
4055;SDS011;2043;52.184;8.690;2022-11-20T16:19:03;22.80;;;12.20;;
4055;SDS011;2043;52.184;8.690;2022-11-20T16:21:31;25.63;;;12.63;;
4055;SDS011;2043;52.184;8.690;2022-11-20T16:23:58;25.90;;;12.83;;
4055;SDS011;2043;52.184;8.690;2022-11-20T16:26:30;23.67;;;12.40;;
4055;SDS011;2043;52.184;8.690;2022-11-20T16:28:58;27.37;;;13.37;;
4055;SDS011;2043;52.184;8.690;2022-11-20T16:31:26;23.70;;;12.07;;
4055;SDS011;2043;52.184;8.690;2022-11-20T16:33:53;25.20;;;13.07;;
4055;SDS011;2043;52.184;8.690;2022-11-20T16:36:22;24.40;;;13.37;;
4055;SDS011;2043;52.184;8.690;2022-11-20T16:38:51;29.90;;;15.23;;
4055;SDS011;2043;52.184;8.690;2022-11-20T16:41:19;37.80;;;17.10;;
4055;SDS011;2043;52.184;8.690;2022-11-20T16:43:47;37.70;;;18.40;;
4055;SDS011;2043;52.184;8.690;2022-11-20T16:46:16;44.57;;;19.47;;
4055;SDS011;2043;52.184;8.690;2022-11-20T16:48:44;41.30;;;19.70;;
4055;SDS011;2043;52.184;8.690;2022-11-20T16:51:17;38.93;;;20.17;;
4055;SDS011;2043;52.184;8.690;2022-11-20T16:53:45;34.40;;;18.63;;